Time;durP1;ratioP1;P1;durP2;ratioP2;P2;SDS_P1;SDS_P2;PMS_P1;PMS_P2;Temp;Humidity;BMP_temperature;BMP_pressure;BME280_temperature;BME280_humidity;BME280_pressure;Samples;Min_cycle;Max_cycle;Signal;HPM_P1;HPM_P2
2023/01/15 00:01:38;;;;;;;116.63;83.40;;;2.90;99.90;;;;;;4897752;29;20385;-76
2023/01/15 00:04:06;;;;;;;109.32;75.00;;;2.80;99.90;;;;;;4897281;29;20028;-75
2023/01/15 00:06:36;;;;;;;104.53;73.00;;;2.80;99.90;;;;;;4896040;29;20358;-75
2023/01/15 00:09:02;;;;;;;102.25;68.97;;;2.80;99.90;;;;;;4898738;29;20080;-74
2023/01/15 00:11:28;;;;;;;106.13;69.35;;;2.80;99.90;;;;;;4898168;29;20075;-73
2023/01/15 00:13:55;;;;;;;108.45;68.75;;;2.90;99.90;;;;;;4898771;29;20111;-74
2023/01/15 00:16:22;;;;;;;92.90;63.20;;;2.80;99.90;;;;;;4897085;29;20053;-75
2023/01/15 00:18:54;;;;;;;128.82;81.45;;;2.80;99.90;;;;;;4898769;29;20029;-74
2023/01/15 00:21:21;;;;;;;135.10;84.60;;;2.80;99.90;;;;;;4898478;29;20032;-74
2023/01/15 00:29:18;;;;;;;157.13;92.85;;;2.80;99.90;;;;;;4897698;29;20068;-73
2023/01/15 00:32:01;;;;;;;140.15;83.38;;;2.70;99.90;;;;;;4896816;29;20037;-74
2023/01/15 00:34:27;;;;;;;109.20;69.43;;;2.70;99.90;;;;;;4898275;29;20040;-74
2023/01/15 00:36:53;;;;;;;86.40;53.70;;;2.60;99.90;;;;;;4897992;29;20028;-74
2023/01/15 00:39:19;;;;;;;67.82;43.55;;;2.60;99.90;;;;;;4898343;29;20036;-74
2023/01/15 00:41:46;;;;;;;58.63;38.45;;;2.70;99.90;;;;;;4898274;29;20077;-74
2023/01/15 00:44:12;;;;;;;52.90;36.15;;;2.80;99.90;;;;;;4905756;29;20028;-75
2023/01/15 00:46:38;;;;;;;55.28;34.95;;;2.80;99.90;;;;;;4899320;29;20373;-74
2023/01/15 00:49:04;;;;;;;52.78;34.53;;;2.80;99.90;;;;;;4904082;29;20405;-74
2023/01/15 00:51:30;;;;;;;65.85;41.05;;;2.90;99.90;;;;;;4897954;29;20032;-74
2023/01/15 00:53:56;;;;;;;57.72;37.78;;;2.90;99.90;;;;;;4897831;29;20554;-74
2023/01/15 00:56:22;;;;;;;65.30;40.17;;;2.90;99.90;;;;;;4901721;29;20045;-74
2023/01/15 00:58:48;;;;;;;53.75;37.33;;;2.90;99.90;;;;;;4897691;29;20042;-74
2023/01/15 01:01:15;;;;;;;52.28;33.95;;;2.90;99.90;;;;;;4896660;29;20116;-74
2023/01/15 01:03:41;;;;;;;52.75;34.50;;;2.90;99.90;;;;;;4897395;29;20051;-75
2023/01/15 01:06:09;;;;;;;51.17;31.48;;;2.90;99.90;;;;;;4895782;29;20500;-74
2023/01/15 01:08:35;;;;;;;48.80;32.50;;;2.90;99.90;;;;;;4896357;29;20036;-74
2023/01/15 01:11:04;;;;;;;49.95;31.15;;;2.90;99.90;;;;;;4896589;29;20044;-74
2023/01/15 01:13:31;;;;;;;53.70;32.00;;;2.90;99.90;;;;;;4897629;29;20061;-74
2023/01/15 01:15:57;;;;;;;51.90;29.40;;;2.90;99.90;;;;;;4896307;29;20020;-74
2023/01/15 01:18:24;;;;;;;51.10;34.20;;;2.90;99.90;;;;;;4881153;29;20037;-74
2023/01/15 01:20:50;;;;;;;58.28;36.25;;;2.90;99.90;;;;;;4899010;29;20032;-75
2023/01/15 01:23:16;;;;;;;48.55;30.20;;;2.90;99.90;;;;;;4879832;29;20092;-74
2023/01/15 01:25:42;;;;;;;48.47;30.15;;;2.90;99.90;;;;;;4897296;29;20500;-74
2023/01/15 01:28:07;;;;;;;43.95;28.27;;;2.80;99.90;;;;;;4897799;29;20051;-74
2023/01/15 01:30:33;;;;;;;42.53;25.30;;;2.80;99.90;;;;;;4893386;29;20063;-74
2023/01/15 01:32:59;;;;;;;39.10;25.50;;;2.80;99.90;;;;;;4900316;29;20036;-74
2023/01/15 01:35:25;;;;;;;40.03;24.70;;;2.80;99.90;;;;;;4894767;29;20040;-75
2023/01/15 01:37:51;;;;;;;41.33;26.95;;;2.70;99.90;;;;;;4896513;29;20012;-74
2023/01/15 01:40:18;;;;;;;40.15;25.95;;;2.80;99.90;;;;;;4894931;29;20028;-75
2023/01/15 01:42:44;;;;;;;36.70;24.10;;;2.70;99.90;;;;;;4895516;29;20020;-74
2023/01/15 01:45:26;;;;;;;42.40;24.55;;;2.70;99.90;;;;;;4897856;29;20103;-75
2023/01/15 01:47:59;;;;;;;41.33;25.48;;;2.70;99.90;;;;;;4893439;29;20025;-75
2023/01/15 01:50:27;;;;;;;40.08;25.42;;;2.70;99.90;;;;;;4895479;29;20044;-75
2023/01/15 01:53:01;;;;;;;40.95;25.00;;;2.70;99.90;;;;;;4879387;29;20024;-74
2023/01/15 01:55:29;;;;;;;46.55;26.63;;;2.70;99.90;;;;;;4895344;29;20032;-75
2023/01/15 01:57:58;;;;;;;38.50;24.10;;;2.60;99.90;;;;;;4894427;29;20059;-75
2023/01/15 02:00:24;;;;;;;41.25;22.92;;;2.60;99.90;;;;;;4894102;29;20032;-75
2023/01/15 02:02:52;;;;;;;37.75;25.05;;;2.60;99.90;;;;;;4895384;29;20029;-75
2023/01/15 02:05:34;;;;;;;44.38;26.13;;;2.70;99.90;;;;;;4881214;29;20508;-74
2023/01/15 02:08:00;;;;;;;42.67;26.45;;;2.60;99.90;;;;;;4877620;29;20064;-74
2023/01/15 02:10:27;;;;;;;45.97;28.42;;;2.60;99.90;;;;;;4890774;29;20033;-74
2023/01/15 02:13:06;;;;;;;51.35;30.27;;;2.70;99.90;;;;;;4893226;29;20050;-75
2023/01/15 02:15:42;;;;;;;48.80;31.40;;;2.60;99.90;;;;;;4895626;29;20047;-73
2023/01/15 02:18:08;;;;;;;51.95;31.63;;;2.60;99.90;;;;;;4895343;29;20060;-75
2023/01/15 02:21:06;;;;;;;52.72;33.08;;;2.60;99.90;;;;;;4895191;29;20537;-75
2023/01/15 02:23:57;;;;;;;46.50;32.47;;;2.50;99.90;;;;;;4818607;29;20091;-74
2023/01/15 02:26:23;;;;;;;56.33;34.20;;;2.50;99.90;;;;;;4814220;29;20058;-75
2023/01/15 02:28:52;;;;;;;52.95;34.35;;;2.40;99.90;;;;;;4819000;29;20518;-75
2023/01/15 02:31:41;;;;;;;54.03;36.03;;;2.40;99.90;;;;;;4819379;29;20038;-76
2023/01/15 02:34:26;;;;;;;103.63;38.35;;;2.20;99.90;;;;;;4791562;29;20042;-74
2023/01/15 02:37:02;;;;;;;210.68;41.28;;;2.20;99.90;;;;;;4817868;29;20046;-74
2023/01/15 02:39:30;;;;;;;181.65;39.58;;;2.10;99.90;;;;;;4803288;29;20125;-74
2023/01/15 02:42:01;;;;;;;242.52;46.50;;;2.10;99.90;;;;;;4819262;29;20038;-75
2023/01/15 02:44:35;;;;;;;166.60;39.42;;;2.00;99.90;;;;;;4804036;29;20054;-75
2023/01/15 02:47:03;;;;;;;321.33;51.22;;;2.00;99.90;;;;;;4819193;29;20035;-76
2023/01/15 02:49:31;;;;;;;331.02;54.30;;;1.90;99.90;;;;;;4803409;29;20046;-76
2023/01/15 02:52:08;;;;;;;408.98;72.43;;;1.70;99.90;;;;;;4803741;29;20030;-74
2023/01/15 02:54:42;;;;;;;;;;;1.40;99.90;;;;;;4819611;29;20526;-75
2023/01/15 02:57:10;;;;;;;398.17;56.88;;;1.30;99.90;;;;;;4818975;29;20270;-76
2023/01/15 02:59:41;;;;;;;326.95;56.15;;;1.20;99.90;;;;;;4834558;29;20052;-75
2023/01/15 03:02:13;;;;;;;403.67;73.70;;;1.20;99.90;;;;;;4895113;29;20111;-73
2023/01/15 03:04:54;;;;;;;404.60;94.95;;;1.30;99.90;;;;;;4878049;29;20036;-75
2023/01/15 03:07:23;;;;;;;329.92;79.15;;;1.40;99.90;;;;;;4895095;29;20033;-74
2023/01/15 03:09:50;;;;;;;411.45;72.10;;;1.40;99.90;;;;;;4893878;29;20059;-75
2023/01/15 03:13:01;;;;;;;418.88;61.00;;;1.30;99.90;;;;;;4892515;29;20033;-74
2023/01/15 03:18:18;;;;;;;326.73;62.63;;;1.20;99.90;;;;;;4893610;29;20025;-74
2023/01/15 03:20:51;;;;;;;248.02;49.42;;;1.20;99.90;;;;;;4893582;29;20504;-74
2023/01/15 03:23:21;;;;;;;361.40;66.53;;;1.20;99.90;;;;;;4895392;29;20027;-75
2023/01/15 03:25:49;;;;;;;482.67;77.47;;;1.10;99.90;;;;;;4895806;29;20037;-75
2023/01/15 03:28:22;;;;;;;548.17;92.55;;;1.00;99.90;;;;;;4882435;29;20401;-74
2023/01/15 03:30:48;;;;;;;258.02;49.50;;;0.90;99.90;;;;;;4899376;29;20048;-74
2023/01/15 03:33:14;;;;;;;271.25;58.83;;;0.80;99.90;;;;;;4899257;29;20024;-74
2023/01/15 03:35:57;;;;;;;250.48;57.83;;;0.80;99.90;;;;;;4897942;29;20455;-74
2023/01/15 03:38:38;;;;;;;367.08;83.43;;;0.70;99.90;;;;;;4898088;29;20104;-74
2023/01/15 03:41:23;;;;;;;254.07;48.78;;;0.70;99.90;;;;;;4882360;29;20040;-74
2023/01/15 03:44:00;;;;;;;398.05;66.55;;;0.80;99.90;;;;;;4897955;29;20028;-73
2023/01/15 03:46:39;;;;;;;353.55;71.60;;;0.60;99.90;;;;;;4882456;29;20061;-74
2023/01/15 03:49:20;;;;;;;183.13;53.47;;;0.50;99.90;;;;;;4896333;29;20036;-74
2023/01/15 03:52:15;;;;;;;107.05;44.42;;;0.50;99.90;;;;;;4892480;29;20498;-74
2023/01/15 03:54:49;;;;;;;;;;;0.60;99.90;;;;;;4894632;29;20370;-74
2023/01/15 03:57:24;;;;;;;457.02;88.30;;;0.60;99.90;;;;;;4893983;29;19911;-75
2023/01/15 03:59:58;;;;;;;252.65;48.03;;;0.50;99.90;;;;;;4882866;29;20036;-74
2023/01/15 04:02:26;;;;;;;210.20;49.90;;;0.50;99.90;;;;;;4895089;29;20434;-74
2023/01/15 04:04:53;;;;;;;208.23;44.28;;;0.60;99.90;;;;;;4879310;29;20061;-75
2023/01/15 04:07:19;;;;;;;285.25;53.55;;;0.60;99.90;;;;;;4877607;29;20032;-75
2023/01/15 04:09:45;;;;;;;223.93;50.75;;;0.60;99.90;;;;;;4893796;29;20512;-74
2023/01/15 04:12:11;;;;;;;181.68;43.10;;;0.60;99.90;;;;;;4896912;29;20037;-74
2023/01/15 04:14:44;;;;;;;;;;;0.70;99.90;;;;;;4899421;29;20134;-74
2023/01/15 04:17:15;;;;;;;87.65;39.20;;;0.70;99.90;;;;;;4895867;29;19915;-75
2023/01/15 04:19:43;;;;;;;90.75;37.75;;;0.70;99.90;;;;;;4897990;29;20037;-75
2023/01/15 04:22:10;;;;;;;153.55;43.85;;;0.80;99.90;;;;;;4881491;29;20029;-75
2023/01/15 04:24:36;;;;;;;178.18;41.13;;;0.80;99.90;;;;;;4898654;29;20060;-75
2023/01/15 04:27:02;;;;;;;98.88;41.53;;;0.70;99.90;;;;;;4897939;29;20064;-75
2023/01/15 04:29:28;;;;;;;87.65;41.63;;;0.70;99.90;;;;;;4898105;29;20049;-75
2023/01/15 04:31:56;;;;;;;90.75;40.88;;;0.70;99.90;;;;;;4898174;29;20029;-73
2023/01/15 04:34:26;;;;;;;101.82;49.45;;;0.80;99.90;;;;;;4897915;29;20111;-74
2023/01/15 04:36:53;;;;;;;117.25;51.67;;;0.80;99.90;;;;;;4897734;29;20089;-74
2023/01/15 04:39:19;;;;;;;198.40;70.47;;;0.80;99.90;;;;;;4897223;29;20058;-74
2023/01/15 04:44:29;;;;;;;85.07;43.15;;;0.70;99.90;;;;;;4890074;29;20036;-74
2023/01/15 04:46:56;;;;;;;51.75;36.13;;;0.60;99.90;;;;;;4897640;29;20477;-74
2023/01/15 04:49:22;;;;;;;81.72;52.08;;;0.60;99.90;;;;;;4897797;29;20048;-74
2023/01/15 04:51:48;;;;;;;57.75;41.92;;;0.60;99.90;;;;;;4897938;29;20547;-74
2023/01/15 04:54:16;;;;;;;54.53;37.83;;;0.60;99.90;;;;;;4898206;29;20056;-74
2023/01/15 04:56:50;;;;;;;60.08;44.00;;;0.70;99.90;;;;;;4897468;29;20115;-74
2023/01/15 04:59:18;;;;;;;52.22;36.40;;;0.70;99.90;;;;;;4897714;29;20032;-75
2023/01/15 05:01:44;;;;;;;43.85;32.65;;;0.70;99.90;;;;;;4897623;29;20060;-75
2023/01/15 05:04:09;;;;;;;50.03;34.88;;;0.80;99.90;;;;;;4897558;29;20067;-74
2023/01/15 05:06:35;;;;;;;51.78;37.42;;;0.90;99.90;;;;;;4897536;29;20045;-75
2023/01/15 05:09:02;;;;;;;59.85;36.72;;;1.00;99.90;;;;;;4897664;29;20029;-75
2023/01/15 05:11:29;;;;;;;60.65;39.97;;;1.10;99.90;;;;;;4897922;29;20080;-74
2023/01/15 05:13:55;;;;;;;56.75;40.67;;;1.20;99.90;;;;;;4897532;29;20056;-75
2023/01/15 05:16:26;;;;;;;63.78;42.67;;;1.30;99.90;;;;;;4897361;29;20496;-74
2023/01/15 05:18:56;;;;;;;73.72;53.45;;;1.40;99.90;;;;;;4897759;29;20484;-75
2023/01/15 05:21:24;;;;;;;76.65;54.40;;;1.40;99.90;;;;;;4897540;29;20041;-75
2023/01/15 05:23:52;;;;;;;85.07;57.08;;;1.50;99.90;;;;;;4897281;29;20021;-76
2023/01/15 05:26:18;;;;;;;87.70;60.45;;;1.50;99.90;;;;;;4897254;29;20024;-75
2023/01/15 05:28:44;;;;;;;100.28;72.97;;;1.60;99.90;;;;;;4896825;29;20044;-75
2023/01/15 05:31:15;;;;;;;125.30;87.60;;;1.70;99.90;;;;;;4897297;29;20044;-74
2023/01/15 05:33:42;;;;;;;104.53;73.70;;;1.70;99.90;;;;;;4897646;29;20126;-75
2023/01/15 05:36:12;;;;;;;109.43;74.60;;;1.70;99.90;;;;;;4897343;29;20028;-75
2023/01/15 05:38:38;;;;;;;85.72;58.65;;;1.70;99.90;;;;;;4896911;29;20036;-74
2023/01/15 05:44:01;;;;;;;71.03;47.72;;;1.80;99.90;;;;;;4897149;29;20044;-74
2023/01/15 05:46:27;;;;;;;90.68;61.40;;;1.80;99.90;;;;;;4897282;29;20077;-74
2023/01/15 05:48:53;;;;;;;120.57;80.25;;;1.80;99.90;;;;;;4895954;29;20028;-74
2023/01/15 05:51:19;;;;;;;71.63;49.53;;;1.80;99.90;;;;;;4896872;29;20040;-74
2023/01/15 05:53:45;;;;;;;59.40;40.83;;;1.80;99.90;;;;;;4896846;29;20107;-74
2023/01/15 05:56:11;;;;;;;53.65;38.08;;;1.80;99.90;;;;;;4896830;29;20111;-76
2023/01/15 05:58:37;;;;;;;56.90;38.22;;;1.80;99.90;;;;;;4896899;29;20039;-75
2023/01/15 06:01:10;;;;;;;51.55;36.45;;;1.80;99.90;;;;;;4896555;29;20454;-76
2023/01/15 06:03:36;;;;;;;;;;;1.70;99.90;;;;;;4897624;29;20041;-75
2023/01/15 06:06:02;;;;;;;54.00;39.50;;;1.70;99.90;;;;;;4896806;29;19907;-74
2023/01/15 06:08:29;;;;;;;70.38;49.63;;;1.70;99.90;;;;;;4896907;29;20048;-75
2023/01/15 06:10:55;;;;;;;67.25;46.20;;;1.60;99.90;;;;;;4896329;29;20088;-73
2023/01/15 06:13:21;;;;;;;70.13;47.60;;;1.60;99.90;;;;;;4896828;29;20064;-75
2023/01/15 06:15:47;;;;;;;90.00;51.30;;;1.60;99.90;;;;;;4896626;29;20063;-74
2023/01/15 06:18:12;;;;;;;119.65;54.97;;;1.60;99.90;;;;;;4896296;29;20396;-75
2023/01/15 06:20:40;;;;;;;145.68;53.05;;;1.60;99.90;;;;;;4896670;29;20035;-75
2023/01/15 06:23:06;;;;;;;142.20;52.10;;;1.60;99.90;;;;;;4896841;29;20061;-74
2023/01/15 06:25:36;;;;;;;156.05;49.83;;;1.60;99.90;;;;;;4896815;29;20032;-75
2023/01/15 06:28:05;;;;;;;201.85;60.15;;;1.60;99.90;;;;;;4883011;29;20048;-74
2023/01/15 06:30:32;;;;;;;157.70;56.70;;;1.60;99.90;;;;;;4878257;29;20041;-75
2023/01/15 06:32:58;;;;;;;165.85;53.88;;;1.60;99.90;;;;;;4877797;29;20037;-75
2023/01/15 06:35:24;;;;;;;133.93;59.85;;;1.70;99.90;;;;;;4876644;29;20492;-74
2023/01/15 06:37:49;;;;;;;157.82;51.28;;;1.70;99.90;;;;;;4877539;29;20096;-74
2023/01/15 06:40:16;;;;;;;110.25;61.83;;;1.70;99.90;;;;;;4877288;29;20029;-75
2023/01/15 06:48:24;;;;;;;179.48;77.57;;;1.70;99.90;;;;;;4877713;29;20044;-75
2023/01/15 06:50:50;;;;;;;130.82;62.78;;;1.70;99.90;;;;;;4877111;29;20044;-76
2023/01/15 06:53:16;;;;;;;161.75;52.20;;;1.70;99.90;;;;;;4877479;29;20386;-75
2023/01/15 06:55:42;;;;;;;212.43;60.45;;;1.80;99.90;;;;;;4877799;29;20105;-75
2023/01/15 06:58:08;;;;;;;123.07;53.28;;;1.70;99.90;;;;;;4877711;29;20021;-75
2023/01/15 07:00:34;;;;;;;154.40;56.30;;;1.80;99.90;;;;;;4879008;29;20037;-75
2023/01/15 07:03:00;;;;;;;155.98;64.10;;;1.70;99.90;;;;;;4881039;29;20043;-75
2023/01/15 07:05:26;;;;;;;175.73;69.13;;;1.80;99.90;;;;;;4880960;29;20029;-76
2023/01/15 07:07:52;;;;;;;202.18;70.65;;;1.90;99.90;;;;;;4881457;29;20033;-75
2023/01/15 07:10:18;;;;;;;272.25;95.28;;;1.80;99.90;;;;;;4880705;29;20044;-75
2023/01/15 07:12:44;;;;;;;186.77;72.43;;;1.90;99.90;;;;;;4880851;29;20028;-75
2023/01/15 07:15:10;;;;;;;135.93;66.80;;;2.00;99.90;;;;;;4880945;29;20548;-75
2023/01/15 07:17:36;;;;;;;238.98;83.60;;;1.90;99.90;;;;;;4881284;29;20029;-76
2023/01/15 07:20:03;;;;;;;127.22;61.10;;;1.80;99.90;;;;;;4880925;29;20174;-77
2023/01/15 07:22:29;;;;;;;294.95;84.53;;;1.90;99.90;;;;;;4880735;29;20386;-76
2023/01/15 07:24:55;;;;;;;224.15;67.75;;;1.80;99.90;;;;;;4880096;29;20469;-75
2023/01/15 07:27:21;;;;;;;100.97;55.60;;;1.80;99.90;;;;;;4887928;29;20041;-75
2023/01/15 07:29:48;;;;;;;135.95;62.22;;;2.00;99.90;;;;;;4898605;29;20040;-75
2023/01/15 07:32:14;;;;;;;157.05;66.75;;;2.10;99.90;;;;;;4898606;29;20021;-74
2023/01/15 07:34:40;;;;;;;170.73;60.30;;;2.10;99.90;;;;;;4895841;29;20024;-74
2023/01/15 07:37:06;;;;;;;157.52;49.10;;;2.20;99.90;;;;;;4898994;29;20032;-75
2023/01/15 07:39:32;;;;;;;164.27;45.45;;;2.20;99.90;;;;;;4898617;29;20036;-74
2023/01/15 07:50:19;;;;;;;397.83;101.75;;;2.00;99.90;;;;;;4896139;29;20040;-74
2023/01/15 07:52:45;;;;;;;271.30;79.65;;;2.10;99.90;;;;;;4898566;29;20025;-74
2023/01/15 07:55:12;;;;;;;302.45;83.25;;;2.10;99.90;;;;;;4896092;29;20068;-74
2023/01/15 07:57:39;;;;;;;268.55;78.15;;;2.20;99.90;;;;;;4898437;29;20031;-73
2023/01/15 08:00:11;;;;;;;159.38;53.47;;;2.30;99.90;;;;;;4897657;29;20076;-73
2023/01/15 08:02:40;;;;;;;115.05;51.95;;;2.50;99.90;;;;;;4896163;29;20164;-74
2023/01/15 08:05:07;;;;;;;227.73;72.55;;;2.70;99.90;;;;;;4897617;29;20028;-73
2023/01/15 08:07:40;;;;;;;332.73;84.88;;;2.50;99.90;;;;;;4895926;29;20024;-74
2023/01/15 08:10:07;;;;;;;183.63;54.17;;;2.40;99.90;;;;;;4898420;29;20061;-74
2023/01/15 08:15:17;;;;;;;135.32;49.42;;;2.70;99.90;;;;;;4898168;29;20037;-74
2023/01/15 08:17:45;;;;;;;172.18;51.17;;;2.70;99.90;;;;;;4898350;29;20025;-73
2023/01/15 08:20:17;;;;;;;297.95;95.50;;;2.80;99.90;;;;;;4898095;29;20032;-74
2023/01/15 08:22:44;;;;;;;264.15;65.18;;;2.60;99.90;;;;;;4898353;29;20116;-74
2023/01/15 08:25:15;;;;;;;132.05;54.42;;;2.60;99.90;;;;;;4898261;29;20036;-75
2023/01/15 08:27:42;;;;;;;136.70;49.75;;;2.70;99.90;;;;;;4887253;29;20116;-74
2023/01/15 08:30:12;;;;;;;63.47;40.10;;;2.90;99.90;;;;;;4879548;29;20116;-77
2023/01/15 08:32:38;;;;;;;73.22;46.08;;;3.10;99.90;;;;;;4879103;29;20029;-75
2023/01/15 08:35:04;;;;;;;81.20;48.00;;;3.30;99.90;;;;;;4879008;29;20025;-75
2023/01/15 08:37:30;;;;;;;146.50;49.30;;;3.50;99.90;;;;;;4878943;29;20081;-74
2023/01/15 08:39:56;;;;;;;99.25;55.80;;;3.60;99.90;;;;;;4878965;29;20032;-73
2023/01/15 08:42:22;;;;;;;124.60;63.78;;;3.30;99.90;;;;;;4879275;29;20491;-75
2023/01/15 08:44:48;;;;;;;81.75;53.60;;;3.00;99.90;;;;;;4870221;29;20562;-74
2023/01/15 08:47:15;;;;;;;70.78;46.75;;;3.30;99.90;;;;;;4879248;29;20017;-74
2023/01/15 08:49:40;;;;;;;65.40;44.38;;;3.60;99.90;;;;;;4878962;29;20064;-74
2023/01/15 08:52:06;;;;;;;55.08;37.25;;;3.70;99.90;;;;;;4879142;29;20532;-74
2023/01/15 08:54:32;;;;;;;49.10;32.72;;;3.70;99.90;;;;;;4878983;29;20469;-73
2023/01/15 08:56:59;;;;;;;60.35;38.85;;;3.70;99.90;;;;;;4878997;29;20484;-74
2023/01/15 08:59:25;;;;;;;60.63;40.25;;;3.90;99.90;;;;;;4878984;29;20070;-74
2023/01/15 09:01:51;;;;;;;49.78;35.40;;;4.10;99.90;;;;;;4878064;29;20393;-75
2023/01/15 09:04:19;;;;;;;56.85;37.78;;;4.20;99.90;;;;;;4878283;29;20025;-75
2023/01/15 09:06:46;;;;;;;50.72;33.80;;;4.40;99.90;;;;;;4875282;29;20047;-75
2023/01/15 09:09:12;;;;;;;52.10;34.33;;;4.30;99.90;;;;;;4879029;29;20392;-75
2023/01/15 09:11:39;;;;;;;52.10;36.03;;;4.30;99.90;;;;;;4878277;29;20041;-74
2023/01/15 09:14:09;;;;;;;50.35;34.42;;;4.30;99.90;;;;;;4878574;29;20021;-74
2023/01/15 09:16:36;;;;;;;54.38;37.35;;;4.40;99.90;;;;;;4878203;29;20121;-74
2023/01/15 09:19:02;;;;;;;51.72;35.40;;;4.60;99.90;;;;;;4877337;29;20021;-74
2023/01/15 09:21:31;;;;;;;47.97;34.22;;;4.70;99.90;;;;;;4876751;29;20029;-74
2023/01/15 09:23:57;;;;;;;64.75;45.47;;;5.00;99.90;;;;;;4878263;29;20116;-74
2023/01/15 09:26:28;;;;;;;47.80;32.50;;;5.20;99.90;;;;;;4878667;29;20029;-75
2023/01/15 09:28:54;;;;;;;52.90;35.88;;;5.30;99.90;;;;;;4897003;29;20033;-75
2023/01/15 09:31:21;;;;;;;53.78;38.03;;;5.50;99.90;;;;;;4894634;29;20116;-74
2023/01/15 09:33:47;;;;;;;64.18;49.13;;;5.60;99.90;;;;;;4896479;29;20036;-74
2023/01/15 09:36:36;;;;;;;61.42;41.83;;;5.80;99.90;;;;;;4896343;29;20148;-75
2023/01/15 09:39:04;;;;;;;65.18;44.67;;;5.90;99.90;;;;;;4894571;29;20399;-75
2023/01/15 09:42:06;;;;;;;70.63;45.03;;;6.10;99.90;;;;;;4895554;29;20067;-74
2023/01/15 09:44:55;;;;;;;66.93;45.80;;;6.40;99.90;;;;;;4894449;29;20025;-74
2023/01/15 09:47:30;;;;;;;113.35;82.43;;;6.50;99.90;;;;;;4898067;29;20032;-74
2023/01/15 09:50:21;;;;;;;97.63;67.05;;;6.50;99.90;;;;;;4896375;29;20060;-74
2023/01/15 09:52:57;;;;;;;71.45;48.70;;;6.80;99.90;;;;;;4893752;29;20040;-74
2023/01/15 09:55:33;;;;;;;59.97;41.35;;;6.90;99.90;;;;;;4894475;29;20338;-74
2023/01/15 09:58:02;;;;;;;86.47;53.90;;;7.10;99.90;;;;;;4894148;29;20529;-72
2023/01/15 10:00:34;;;;;;;74.65;56.17;;;7.20;99.90;;;;;;4894500;29;20032;-75
2023/01/15 10:03:03;;;;;;;44.03;29.73;;;7.40;99.90;;;;;;4895211;29;20032;-73
2023/01/15 10:05:54;;;;;;;38.03;23.45;;;7.40;99.90;;;;;;4895976;29;20052;-74
2023/01/15 10:08:33;;;;;;;46.45;29.10;;;7.40;99.90;;;;;;4894483;29;20099;-73
2023/01/15 10:11:05;;;;;;;38.50;24.60;;;7.50;99.90;;;;;;4892665;29;20052;-73
2023/01/15 10:13:40;;;;;;;36.90;22.77;;;7.50;99.90;;;;;;4895734;29;20089;-74
2023/01/15 10:16:07;;;;;;;43.60;28.50;;;7.60;99.90;;;;;;4896574;29;20385;-73
2023/01/15 10:18:35;;;;;;;39.10;23.67;;;7.60;99.90;;;;;;4899508;29;20039;-73
2023/01/15 10:21:07;;;;;;;42.67;27.15;;;7.70;99.90;;;;;;4893738;29;20073;-73
2023/01/15 10:23:35;;;;;;;40.08;25.55;;;7.80;99.90;;;;;;4896306;29;20032;-73
2023/01/15 10:26:15;;;;;;;34.15;22.38;;;7.90;99.90;;;;;;4895197;29;20028;-73
2023/01/15 10:29:37;;;;;;;49.65;33.53;;;7.90;99.90;;;;;;4893119;29;20091;-73
2023/01/15 10:32:38;;;;;;;37.55;21.95;;;8.00;99.90;;;;;;4864497;29;20142;-73
2023/01/15 10:35:35;;;;;;;37.70;24.73;;;8.10;99.90;;;;;;4863567;29;20033;-74
2023/01/15 10:38:37;;;;;;;49.38;34.05;;;8.20;99.90;;;;;;4840673;29;20501;-73
2023/01/15 10:41:17;;;;;;;30.35;19.50;;;8.40;99.90;;;;;;4868010;29;20040;-73
2023/01/15 10:44:10;;;;;;;36.45;21.77;;;8.40;99.90;;;;;;4870589;29;20473;-73
2023/01/15 10:46:39;;;;;;;33.40;21.50;;;8.50;99.90;;;;;;4868081;29;20612;-74
2023/01/15 10:49:12;;;;;;;32.15;19.35;;;8.50;99.90;;;;;;4870094;29;20183;-73
2023/01/15 10:51:47;;;;;;;35.05;21.98;;;8.60;99.90;;;;;;4866020;29;20032;-73
2023/01/15 10:54:40;;;;;;;38.33;23.20;;;8.70;99.90;;;;;;4868007;29;20065;-73
2023/01/15 10:57:13;;;;;;;42.17;24.92;;;8.80;99.90;;;;;;4868271;29;20037;-73
2023/01/15 10:59:41;;;;;;;30.63;21.15;;;8.90;99.90;;;;;;4865606;29;20113;-73
2023/01/15 11:02:31;;;;;;;34.17;18.83;;;9.00;99.90;;;;;;4868451;29;20033;-73
2023/01/15 11:04:57;;;;;;;26.45;17.17;;;9.10;99.90;;;;;;4901753;29;20031;-73
2023/01/15 11:07:31;;;;;;;31.58;18.70;;;9.20;99.90;;;;;;4898996;29;20409;-73
2023/01/15 11:10:02;;;;;;;32.10;20.33;;;9.30;99.90;;;;;;4902370;29;20055;-74
2023/01/15 11:21:01;;;;;;;30.27;18.43;;;9.50;99.90;;;;;;4888698;29;20028;-74
2023/01/15 11:23:27;;;;;;;30.27;18.48;;;9.60;99.90;;;;;;4899751;29;20024;-74
2023/01/15 11:25:58;;;;;;;28.63;16.92;;;9.60;99.90;;;;;;4899466;29;20196;-74
2023/01/15 11:28:39;;;;;;;31.13;18.48;;;9.70;99.90;;;;;;4882475;29;20056;-73
2023/01/15 11:31:07;;;;;;;29.80;18.63;;;9.70;99.90;;;;;;4880956;29;20109;-73
2023/01/15 11:33:33;;;;;;;27.35;16.65;;;9.80;99.90;;;;;;4880208;29;20037;-74
2023/01/15 11:36:05;;;;;;;32.40;17.38;;;9.90;99.90;;;;;;4880749;29;20040;-74
2023/01/15 11:38:43;;;;;;;29.60;17.52;;;9.80;99.90;;;;;;4880497;29;20132;-73
2023/01/15 11:41:21;;;;;;;23.02;15.35;;;9.90;99.90;;;;;;4890225;29;20396;-74
2023/01/15 11:52:21;;;;;;;29.70;16.55;;;10.10;99.90;;;;;;4880333;29;20060;-74
2023/01/15 11:54:52;;;;;;;31.02;19.75;;;10.10;99.90;;;;;;4880256;29;20025;-74
2023/01/15 11:57:27;;;;;;;24.63;15.50;;;10.00;99.90;;;;;;4880494;29;20029;-74
2023/01/15 11:59:53;;;;;;;27.70;16.55;;;10.00;99.90;;;;;;4879935;29;20037;-74
2023/01/15 12:05:14;;;;;;;32.83;17.23;;;10.10;99.90;;;;;;4880010;29;20116;-74
2023/01/15 12:07:40;;;;;;;29.65;16.92;;;10.20;99.90;;;;;;4880131;29;20036;-74
2023/01/15 12:10:15;;;;;;;29.73;16.52;;;10.20;99.90;;;;;;4880063;29;20041;-75
2023/01/15 12:13:11;;;;;;;25.25;13.35;;;10.30;99.90;;;;;;4879710;29;20165;-75
2023/01/15 12:16:10;;;;;;;37.67;19.08;;;10.20;99.90;;;;;;4880034;29;20051;-75
2023/01/15 12:18:59;;;;;;;26.52;13.57;;;10.30;99.90;;;;;;4883288;29;20041;-75
2023/01/15 12:22:14;;;;;;;28.25;16.10;;;10.40;99.90;;;;;;4884311;29;20052;-75
2023/01/15 12:24:56;;;;;;;28.17;16.05;;;10.30;99.90;;;;;;4820331;29;20115;-75
2023/01/15 12:27:45;;;;;;;29.10;17.42;;;10.30;99.90;;;;;;4813671;29;20061;-75
2023/01/15 12:30:26;;;;;;;31.17;19.83;;;10.40;99.90;;;;;;4839558;29;20053;-76
2023/01/15 12:33:06;;;;;;;30.00;20.80;;;10.50;99.90;;;;;;4839701;29;20037;-75
2023/01/15 12:35:36;;;;;;;45.95;33.72;;;10.50;99.90;;;;;;4839765;29;20509;-75
2023/01/15 12:38:14;;;;;;;24.00;16.55;;;10.60;99.90;;;;;;4839457;29;20042;-73
2023/01/15 12:40:46;;;;;;;35.58;27.77;;;10.60;99.90;;;;;;4839645;29;20128;-75
2023/01/15 12:46:13;;;;;;;25.88;16.98;;;10.60;99.90;;;;;;4838981;29;20547;-75
2023/01/15 12:48:50;;;;;;;;;;;10.70;99.90;;;;;;4828602;29;20046;-73
2023/01/15 12:51:27;;;;;;;19.00;11.32;;;10.70;99.90;;;;;;4837564;29;19931;-73
2023/01/15 12:53:58;;;;;;;21.55;13.52;;;10.70;99.90;;;;;;4838468;29;20049;-72
2023/01/15 12:56:42;;;;;;;22.50;10.23;;;10.70;99.90;;;;;;4839010;29;20038;-73
2023/01/15 12:59:36;;;;;;;19.35;10.20;;;10.70;99.90;;;;;;4839656;29;20034;-72
2023/01/15 13:02:18;;;;;;;21.15;12.60;;;10.70;99.90;;;;;;4881676;29;20040;-73
2023/01/15 13:04:56;;;;;;;21.00;13.25;;;10.70;99.90;;;;;;4896409;29;20033;-73
2023/01/15 13:07:49;;;;;;;26.58;17.70;;;10.70;99.90;;;;;;4897925;29;20408;-73
2023/01/15 13:10:40;;;;;;;54.67;45.33;;;10.70;99.90;;;;;;4901278;29;20033;-73
2023/01/15 13:13:23;;;;;;;60.72;48.90;;;10.70;99.90;;;;;;4897340;29;20036;-74
2023/01/15 13:16:24;;;;;;;58.55;46.75;;;10.70;99.90;;;;;;4897131;29;20120;-74
2023/01/15 13:19:18;;;;;;;42.33;29.52;;;10.80;99.90;;;;;;4897118;29;20056;-74
2023/01/15 13:21:47;;;;;;;33.10;21.88;;;10.80;99.90;;;;;;4897279;29;20029;-75
2023/01/15 13:24:31;;;;;;;34.60;24.30;;;10.90;99.90;;;;;;4897600;29;20048;-75
2023/01/15 13:26:59;;;;;;;57.40;39.75;;;10.80;99.90;;;;;;4896818;29;20480;-76
2023/01/15 13:29:28;;;;;;;54.30;34.72;;;10.80;99.90;;;;;;4901947;29;20052;-74
2023/01/15 13:32:33;;;;;;;52.25;40.40;;;10.90;99.90;;;;;;4897019;29;20036;-75
2023/01/15 13:35:31;;;;;;;44.78;34.90;;;10.90;99.90;;;;;;4860839;29;20037;-74
2023/01/15 13:38:01;;;;;;;34.40;23.95;;;10.80;99.90;;;;;;4856348;29;20052;-74
2023/01/15 13:40:49;;;;;;;20.17;12.70;;;10.90;99.90;;;;;;4855507;29;20021;-74
2023/01/15 13:43:39;;;;;;;29.27;19.17;;;10.90;99.90;;;;;;4857935;29;20041;-74
2023/01/15 13:46:12;;;;;;;30.35;20.60;;;10.90;99.90;;;;;;4852738;29;20072;-74
2023/01/15 13:48:38;;;;;;;;;;;10.90;99.90;;;;;;4866023;29;20092;-74
2023/01/15 13:51:05;;;;;;;23.65;11.23;;;10.80;99.90;;;;;;4854282;29;19919;-74